sensor_id;sensor_type;location;lat;lon;timestamp;temperature;humidity
10070;DHT22;5074;53.720;10.014;2022-11-14T00:01:13;8.40;99.90
10070;DHT22;5074;53.720;10.014;2022-11-14T00:03:43;8.40;99.90
10070;DHT22;5074;53.720;10.014;2022-11-14T00:06:11;8.40;99.90
10070;DHT22;5074;53.720;10.014;2022-11-14T00:08:39;8.40;99.90
10070;DHT22;5074;53.720;10.014;2022-11-14T00:11:07;8.30;99.90
10070;DHT22;5074;53.720;10.014;2022-11-14T00:13:35;8.40;99.90
10070;DHT22;5074;53.720;10.014;2022-11-14T00:16:03;8.40;99.90
10070;DHT22;5074;53.720;10.014;2022-11-14T00:18:31;8.30;99.90
10070;DHT22;5074;53.720;10.014;2022-11-14T00:21:00;8.30;99.90
10070;DHT22;5074;53.720;10.014;2022-11-14T00:23:28;8.20;99.90
10070;DHT22;5074;53.720;10.014;2022-11-14T00:25:56;8.30;99.90
10070;DHT22;5074;53.720;10.014;2022-11-14T00:28:24;8.30;99.90
10070;DHT22;5074;53.720;10.014;2022-11-14T00:30:52;8.30;99.90
10070;DHT22;5074;53.720;10.014;2022-11-14T00:33:20;8.20;99.90
10070;DHT22;5074;53.720;10.014;2022-11-14T00:35:49;8.20;99.90
10070;DHT22;5074;53.720;10.014;2022-11-14T00:38:20;8.20;99.90
10070;DHT22;5074;53.720;10.014;2022-11-14T00:40:49;8.10;99.90
10070;DHT22;5074;53.720;10.014;2022-11-14T00:43:17;8.10;99.90
10070;DHT22;5074;53.720;10.014;2022-11-14T00:45:45;8.10;99.90
10070;DHT22;5074;53.720;10.014;2022-11-14T00:48:14;8.00;99.90
10070;DHT22;5074;53.720;10.014;2022-11-14T00:50:42;8.00;99.90
10070;DHT22;5074;53.720;10.014;2022-11-14T00:53:10;8.10;99.90
10070;DHT22;5074;53.720;10.014;2022-11-14T00:55:40;8.00;99.90
10070;DHT22;5074;53.720;10.014;2022-11-14T00:58:09;8.00;99.90
10070;DHT22;5074;53.720;10.014;2022-11-14T01:00:37;8.00;99.90
10070;DHT22;5074;53.720;10.014;2022-11-14T01:03:05;7.90;99.90
10070;DHT22;5074;53.720;10.014;2022-11-14T01:05:34;7.90;99.90
10070;DHT22;5074;53.720;10.014;2022-11-14T01:08:07;7.90;99.90
10070;DHT22;5074;53.720;10.014;2022-11-14T01:10:37;7.90;99.90
10070;DHT22;5074;53.720;10.014;2022-11-14T01:13:07;7.90;99.90
10070;DHT22;5074;53.720;10.014;2022-11-14T01:15:37;7.80;99.90
10070;DHT22;5074;53.720;10.014;2022-11-14T01:18:06;7.80;99.90
10070;DHT22;5074;53.720;10.014;2022-11-14T01:20:36;7.80;99.90
10070;DHT22;5074;53.720;10.014;2022-11-14T01:23:05;7.80;99.90
10070;DHT22;5074;53.720;10.014;2022-11-14T01:25:34;7.80;99.90
10070;DHT22;5074;53.720;10.014;2022-11-14T01:28:05;7.70;99.90
10070;DHT22;5074;53.720;10.014;2022-11-14T01:30:34;7.70;99.90
10070;DHT22;5074;53.720;10.014;2022-11-14T01:33:02;7.70;99.90
10070;DHT22;5074;53.720;10.014;2022-11-14T01:35:31;7.70;99.90
10070;DHT22;5074;53.720;10.014;2022-11-14T01:38:00;7.70;99.90
10070;DHT22;5074;53.720;10.014;2022-11-14T01:40:29;7.60;99.90
10070;DHT22;5074;53.720;10.014;2022-11-14T01:45:56;7.60;99.90
10070;DHT22;5074;53.720;10.014;2022-11-14T01:48:29;7.60;99.90
10070;DHT22;5074;53.720;10.014;2022-11-14T01:51:03;7.60;99.90
10070;DHT22;5074;53.720;10.014;2022-11-14T01:53:39;7.60;99.90
10070;DHT22;5074;53.720;10.014;2022-11-14T01:56:07;7.60;99.90
10070;DHT22;5074;53.720;10.014;2022-11-14T01:58:40;7.60;99.90
10070;DHT22;5074;53.720;10.014;2022-11-14T02:01:12;7.60;99.90
10070;DHT22;5074;53.720;10.014;2022-11-14T02:03:41;7.70;99.90
10070;DHT22;5074;53.720;10.014;2022-11-14T02:06:19;7.70;99.90
10070;DHT22;5074;53.720;10.014;2022-11-14T02:08:49;7.60;99.90
10070;DHT22;5074;53.720;10.014;2022-11-14T02:11:18;7.60;99.90
10070;DHT22;5074;53.720;10.014;2022-11-14T02:13:47;7.60;99.90
10070;DHT22;5074;53.720;10.014;2022-11-14T02:16:16;7.60;99.90
10070;DHT22;5074;53.720;10.014;2022-11-14T02:18:44;7.60;99.90
10070;DHT22;5074;53.720;10.014;2022-11-14T02:21:13;7.60;99.90
10070;DHT22;5074;53.720;10.014;2022-11-14T02:23:41;7.60;99.90
10070;DHT22;5074;53.720;10.014;2022-11-14T02:26:09;7.60;99.90
10070;DHT22;5074;53.720;10.014;2022-11-14T02:28:37;7.60;99.90
10070;DHT22;5074;53.720;10.014;2022-11-14T02:31:05;7.60;99.90
10070;DHT22;5074;53.720;10.014;2022-11-14T02:33:33;7.60;99.90
10070;DHT22;5074;53.720;10.014;2022-11-14T02:36:01;7.60;99.90
10070;DHT22;5074;53.720;10.014;2022-11-14T02:38:30;7.60;99.90
10070;DHT22;5074;53.720;10.014;2022-11-14T02:40:58;7.50;99.90
10070;DHT22;5074;53.720;10.014;2022-11-14T02:43:26;7.60;99.90
10070;DHT22;5074;53.720;10.014;2022-11-14T02:45:54;7.60;99.90
10070;DHT22;5074;53.720;10.014;2022-11-14T02:48:28;7.60;99.90
10070;DHT22;5074;53.720;10.014;2022-11-14T02:50:56;7.60;99.90
10070;DHT22;5074;53.720;10.014;2022-11-14T02:53:24;7.60;99.90
10070;DHT22;5074;53.720;10.014;2022-11-14T02:55:53;7.50;99.90
10070;DHT22;5074;53.720;10.014;2022-11-14T02:58:21;7.50;99.90
10070;DHT22;5074;53.720;10.014;2022-11-14T03:00:49;7.60;99.90
10070;DHT22;5074;53.720;10.014;2022-11-14T03:03:37;7.50;99.90
10070;DHT22;5074;53.720;10.014;2022-11-14T03:06:05;7.50;99.90
10070;DHT22;5074;53.720;10.014;2022-11-14T03:08:33;7.50;99.90
10070;DHT22;5074;53.720;10.014;2022-11-14T03:11:06;7.50;99.90
10070;DHT22;5074;53.720;10.014;2022-11-14T03:13:36;7.50;99.90
10070;DHT22;5074;53.720;10.014;2022-11-14T03:16:04;7.50;99.90
10070;DHT22;5074;53.720;10.014;2022-11-14T03:18:33;7.50;99.90
10070;DHT22;5074;53.720;10.014;2022-11-14T03:21:04;7.50;99.90
10070;DHT22;5074;53.720;10.014;2022-11-14T03:23:33;7.50;99.90
10070;DHT22;5074;53.720;10.014;2022-11-14T03:26:02;7.50;99.90
10070;DHT22;5074;53.720;10.014;2022-11-14T03:28:33;7.50;99.90
10070;DHT22;5074;53.720;10.014;2022-11-14T03:31:01;7.50;99.90
10070;DHT22;5074;53.720;10.014;2022-11-14T03:33:29;7.50;99.90
10070;DHT22;5074;53.720;10.014;2022-11-14T03:35:57;7.50;99.90
10070;DHT22;5074;53.720;10.014;2022-11-14T03:38:25;7.50;99.90
10070;DHT22;5074;53.720;10.014;2022-11-14T03:40:53;7.50;99.90
10070;DHT22;5074;53.720;10.014;2022-11-14T03:43:24;7.40;99.90
10070;DHT22;5074;53.720;10.014;2022-11-14T03:45:58;7.40;99.90
10070;DHT22;5074;53.720;10.014;2022-11-14T03:48:27;7.40;99.90
10070;DHT22;5074;53.720;10.014;2022-11-14T03:50:56;7.40;99.90
10070;DHT22;5074;53.720;10.014;2022-11-14T03:53:24;7.50;99.90
10070;DHT22;5074;53.720;10.014;2022-11-14T03:55:53;7.40;99.90
10070;DHT22;5074;53.720;10.014;2022-11-14T03:58:21;7.40;99.90
10070;DHT22;5074;53.720;10.014;2022-11-14T04:00:49;7.40;99.90
10070;DHT22;5074;53.720;10.014;2022-11-14T04:03:19;7.50;99.90
10070;DHT22;5074;53.720;10.014;2022-11-14T04:05:47;7.40;99.90
10070;DHT22;5074;53.720;10.014;2022-11-14T04:08:15;7.50;99.90
10070;DHT22;5074;53.720;10.014;2022-11-14T04:10:45;7.50;99.90
10070;DHT22;5074;53.720;10.014;2022-11-14T04:13:13;7.50;99.90
10070;DHT22;5074;53.720;10.014;2022-11-14T04:15:41;7.50;99.90
10070;DHT22;5074;53.720;10.014;2022-11-14T04:18:09;7.40;99.90
10070;DHT22;5074;53.720;10.014;2022-11-14T04:20:39;7.40;99.90
10070;DHT22;5074;53.720;10.014;2022-11-14T04:23:07;7.40;99.90
10070;DHT22;5074;53.720;10.014;2022-11-14T04:25:35;7.40;99.90
10070;DHT22;5074;53.720;10.014;2022-11-14T04:28:03;7.40;99.90
10070;DHT22;5074;53.720;10.014;2022-11-14T04:30:31;7.40;99.90
10070;DHT22;5074;53.720;10.014;2022-11-14T04:33:00;7.40;99.90
10070;DHT22;5074;53.720;10.014;2022-11-14T04:35:28;7.40;99.90
10070;DHT22;5074;53.720;10.014;2022-11-14T04:37:57;7.40;99.90
10070;DHT22;5074;53.720;10.014;2022-11-14T04:40:25;7.40;99.90
10070;DHT22;5074;53.720;10.014;2022-11-14T04:42:53;7.40;99.90
10070;DHT22;5074;53.720;10.014;2022-11-14T04:45:21;7.40;99.90
10070;DHT22;5074;53.720;10.014;2022-11-14T04:47:49;7.40;99.90
10070;DHT22;5074;53.720;10.014;2022-11-14T04:50:17;7.40;99.90
10070;DHT22;5074;53.720;10.014;2022-11-14T04:52:45;7.40;99.90
10070;DHT22;5074;53.720;10.014;2022-11-14T04:55:15;7.40;99.90
10070;DHT22;5074;53.720;10.014;2022-11-14T04:57:43;7.40;99.90
10070;DHT22;5074;53.720;10.014;2022-11-14T05:00:11;7.40;99.90
10070;DHT22;5074;53.720;10.014;2022-11-14T05:02:40;7.40;99.90
10070;DHT22;5074;53.720;10.014;2022-11-14T05:05:08;7.40;99.90
10070;DHT22;5074;53.720;10.014;2022-11-14T05:07:36;7.40;99.90
10070;DHT22;5074;53.720;10.014;2022-11-14T05:10:04;7.30;99.90
10070;DHT22;5074;53.720;10.014;2022-11-14T05:12:34;7.30;99.90
10070;DHT22;5074;53.720;10.014;2022-11-14T05:15:03;7.30;99.90
10070;DHT22;5074;53.720;10.014;2022-11-14T05:17:31;7.30;99.90
10070;DHT22;5074;53.720;10.014;2022-11-14T05:19:59;7.30;99.90
10070;DHT22;5074;53.720;10.014;2022-11-14T05:22:27;7.30;99.90
10070;DHT22;5074;53.720;10.014;2022-11-14T05:24:55;7.30;99.90
10070;DHT22;5074;53.720;10.014;2022-11-14T05:27:23;7.30;99.90
10070;DHT22;5074;53.720;10.014;2022-11-14T05:29:52;7.30;99.90
10070;DHT22;5074;53.720;10.014;2022-11-14T05:32:20;7.30;99.90
10070;DHT22;5074;53.720;10.014;2022-11-14T05:34:48;7.30;99.90
10070;DHT22;5074;53.720;10.014;2022-11-14T05:37:16;7.40;99.90
10070;DHT22;5074;53.720;10.014;2022-11-14T05:39:44;7.40;99.90
10070;DHT22;5074;53.720;10.014;2022-11-14T05:42:12;7.40;99.90
10070;DHT22;5074;53.720;10.014;2022-11-14T05:44:40;7.30;99.90
10070;DHT22;5074;53.720;10.014;2022-11-14T05:47:10;7.30;99.90
10070;DHT22;5074;53.720;10.014;2022-11-14T05:49:38;7.30;99.90
10070;DHT22;5074;53.720;10.014;2022-11-14T05:52:06;7.40;99.90
10070;DHT22;5074;53.720;10.014;2022-11-14T05:54:34;7.50;99.90
10070;DHT22;5074;53.720;10.014;2022-11-14T05:57:02;7.50;99.90
10070;DHT22;5074;53.720;10.014;2022-11-14T05:59:30;7.40;99.90
10070;DHT22;5074;53.720;10.014;2022-11-14T06:01:58;7.50;99.90
10070;DHT22;5074;53.720;10.014;2022-11-14T06:04:27;7.60;99.90
10070;DHT22;5074;53.720;10.014;2022-11-14T06:06:56;7.50;99.90
10070;DHT22;5074;53.720;10.014;2022-11-14T06:09:24;7.60;99.90
10070;DHT22;5074;53.720;10.014;2022-11-14T06:11:52;7.60;99.90
10070;DHT22;5074;53.720;10.014;2022-11-14T06:14:20;7.50;99.90
10070;DHT22;5074;53.720;10.014;2022-11-14T06:16:48;7.50;99.90
10070;DHT22;5074;53.720;10.014;2022-11-14T06:19:16;7.70;99.90
10070;DHT22;5074;53.720;10.014;2022-11-14T06:21:45;7.70;99.90
10070;DHT22;5074;53.720;10.014;2022-11-14T06:24:13;7.70;99.90
10070;DHT22;5074;53.720;10.014;2022-11-14T06:26:41;7.80;99.90
10070;DHT22;5074;53.720;10.014;2022-11-14T06:29:09;7.60;99.90
10070;DHT22;5074;53.720;10.014;2022-11-14T06:31:37;7.60;99.90
10070;DHT22;5074;53.720;10.014;2022-11-14T06:34:05;7.60;99.90
10070;DHT22;5074;53.720;10.014;2022-11-14T06:36:33;7.70;99.90
10070;DHT22;5074;53.720;10.014;2022-11-14T06:39:04;7.70;99.90
10070;DHT22;5074;53.720;10.014;2022-11-14T06:41:32;7.70;99.90
10070;DHT22;5074;53.720;10.014;2022-11-14T06:44:00;7.70;99.90
10070;DHT22;5074;53.720;10.014;2022-11-14T06:46:28;7.60;99.90
10070;DHT22;5074;53.720;10.014;2022-11-14T06:48:56;7.50;99.90
10070;DHT22;5074;53.720;10.014;2022-11-14T06:51:24;7.30;99.90
10070;DHT22;5074;53.720;10.014;2022-11-14T06:53:52;7.30;99.90
10070;DHT22;5074;53.720;10.014;2022-11-14T06:56:22;7.30;99.90
10070;DHT22;5074;53.720;10.014;2022-11-14T06:58:50;7.30;99.90
10070;DHT22;5074;53.720;10.014;2022-11-14T07:01:18;7.30;99.90
10070;DHT22;5074;53.720;10.014;2022-11-14T07:03:47;7.20;99.90
10070;DHT22;5074;53.720;10.014;2022-11-14T07:06:16;7.20;99.90
10070;DHT22;5074;53.720;10.014;2022-11-14T07:08:45;7.20;99.90
10070;DHT22;5074;53.720;10.014;2022-11-14T07:11:14;7.20;99.90
10070;DHT22;5074;53.720;10.014;2022-11-14T07:13:50;7.20;99.90
10070;DHT22;5074;53.720;10.014;2022-11-14T07:16:19;7.20;99.90
10070;DHT22;5074;53.720;10.014;2022-11-14T07:18:50;7.20;99.90
10070;DHT22;5074;53.720;10.014;2022-11-14T07:21:18;7.20;99.90
10070;DHT22;5074;53.720;10.014;2022-11-14T07:23:46;7.30;99.90
10070;DHT22;5074;53.720;10.014;2022-11-14T07:26:14;7.30;99.90
10070;DHT22;5074;53.720;10.014;2022-11-14T07:28:42;7.30;99.90
10070;DHT22;5074;53.720;10.014;2022-11-14T07:31:19;7.30;99.90
10070;DHT22;5074;53.720;10.014;2022-11-14T07:33:48;7.20;99.90
10070;DHT22;5074;53.720;10.014;2022-11-14T07:36:16;7.30;99.90
10070;DHT22;5074;53.720;10.014;2022-11-14T07:38:44;7.20;99.90
10070;DHT22;5074;53.720;10.014;2022-11-14T07:41:13;7.20;99.90
10070;DHT22;5074;53.720;10.014;2022-11-14T07:43:42;7.20;99.90
10070;DHT22;5074;53.720;10.014;2022-11-14T07:46:11;7.10;99.90
10070;DHT22;5074;53.720;10.014;2022-11-14T07:48:42;7.20;99.90
10070;DHT22;5074;53.720;10.014;2022-11-14T07:51:12;7.20;99.90
10070;DHT22;5074;53.720;10.014;2022-11-14T07:53:42;7.20;99.90
10070;DHT22;5074;53.720;10.014;2022-11-14T07:56:11;7.20;99.90
10070;DHT22;5074;53.720;10.014;2022-11-14T07:58:39;7.10;99.90
10070;DHT22;5074;53.720;10.014;2022-11-14T08:01:09;7.00;99.90
10070;DHT22;5074;53.720;10.014;2022-11-14T08:03:38;7.00;99.90
10070;DHT22;5074;53.720;10.014;2022-11-14T08:06:13;7.00;99.90
10070;DHT22;5074;53.720;10.014;2022-11-14T08:08:42;7.00;99.90
10070;DHT22;5074;53.720;10.014;2022-11-14T08:11:10;7.00;99.90
10070;DHT22;5074;53.720;10.014;2022-11-14T08:13:38;7.00;99.90
10070;DHT22;5074;53.720;10.014;2022-11-14T08:16:07;7.00;99.90
10070;DHT22;5074;53.720;10.014;2022-11-14T08:18:39;7.00;99.90
10070;DHT22;5074;53.720;10.014;2022-11-14T08:21:09;7.00;99.90
10070;DHT22;5074;53.720;10.014;2022-11-14T08:23:39;7.00;99.90
10070;DHT22;5074;53.720;10.014;2022-11-14T08:26:07;7.00;99.90
10070;DHT22;5074;53.720;10.014;2022-11-14T08:28:35;6.90;99.90
10070;DHT22;5074;53.720;10.014;2022-11-14T08:31:03;7.00;99.90
10070;DHT22;5074;53.720;10.014;2022-11-14T08:33:31;7.00;99.90
10070;DHT22;5074;53.720;10.014;2022-11-14T08:35:59;7.00;99.90
10070;DHT22;5074;53.720;10.014;2022-11-14T08:38:28;7.00;99.90
10070;DHT22;5074;53.720;10.014;2022-11-14T08:40:59;7.00;99.90
10070;DHT22;5074;53.720;10.014;2022-11-14T08:43:28;7.10;99.90
10070;DHT22;5074;53.720;10.014;2022-11-14T08:45:57;7.10;99.90
10070;DHT22;5074;53.720;10.014;2022-11-14T08:48:27;7.10;99.90
10070;DHT22;5074;53.720;10.014;2022-11-14T08:50:56;7.10;99.90
10070;DHT22;5074;53.720;10.014;2022-11-14T08:53:25;7.10;99.90
10070;DHT22;5074;53.720;10.014;2022-11-14T08:55:53;7.10;99.90
10070;DHT22;5074;53.720;10.014;2022-11-14T08:58:22;7.10;99.90
10070;DHT22;5074;53.720;10.014;2022-11-14T09:00:50;7.00;99.90
10070;DHT22;5074;53.720;10.014;2022-11-14T09:03:18;7.00;99.90
10070;DHT22;5074;53.720;10.014;2022-11-14T09:05:49;7.00;99.90
10070;DHT22;5074;53.720;10.014;2022-11-14T09:08:18;6.90;99.90
10070;DHT22;5074;53.720;10.014;2022-11-14T09:10:46;6.90;99.90
10070;DHT22;5074;53.720;10.014;2022-11-14T09:13:14;6.90;99.90
10070;DHT22;5074;53.720;10.014;2022-11-14T09:15:44;6.90;99.90
10070;DHT22;5074;53.720;10.014;2022-11-14T09:18:12;6.90;99.90
10070;DHT22;5074;53.720;10.014;2022-11-14T09:20:40;7.00;99.90
10070;DHT22;5074;53.720;10.014;2022-11-14T09:23:09;7.00;99.90
10070;DHT22;5074;53.720;10.014;2022-11-14T09:25:37;7.00;99.90
10070;DHT22;5074;53.720;10.014;2022-11-14T09:28:05;7.10;99.90
10070;DHT22;5074;53.720;10.014;2022-11-14T09:30:35;7.10;99.90
10070;DHT22;5074;53.720;10.014;2022-11-14T09:33:04;7.10;99.90
10070;DHT22;5074;53.720;10.014;2022-11-14T09:35:37;7.10;99.90
10070;DHT22;5074;53.720;10.014;2022-11-14T09:38:06;7.10;99.90
10070;DHT22;5074;53.720;10.014;2022-11-14T09:40:40;7.10;99.90
10070;DHT22;5074;53.720;10.014;2022-11-14T09:43:24;7.10;99.90
10070;DHT22;5074;53.720;10.014;2022-11-14T09:46:08;7.20;99.90
10070;DHT22;5074;53.720;10.014;2022-11-14T09:48:46;7.20;99.90
10070;DHT22;5074;53.720;10.014;2022-11-14T09:51:16;7.20;99.90
10070;DHT22;5074;53.720;10.014;2022-11-14T09:53:49;7.20;99.90
10070;DHT22;5074;53.720;10.014;2022-11-14T09:56:21;7.20;99.90
10070;DHT22;5074;53.720;10.014;2022-11-14T09:58:51;7.20;99.90
10070;DHT22;5074;53.720;10.014;2022-11-14T10:01:24;7.20;99.90
10070;DHT22;5074;53.720;10.014;2022-11-14T10:04:02;7.20;99.90
10070;DHT22;5074;53.720;10.014;2022-11-14T10:06:39;7.30;99.90
10070;DHT22;5074;53.720;10.014;2022-11-14T10:09:32;7.30;99.90
10070;DHT22;5074;53.720;10.014;2022-11-14T10:12:12;7.40;99.90
10070;DHT22;5074;53.720;10.014;2022-11-14T10:14:56;7.40;99.90
10070;DHT22;5074;53.720;10.014;2022-11-14T10:17:51;7.40;99.90
10070;DHT22;5074;53.720;10.014;2022-11-14T10:20:31;7.40;99.90
10070;DHT22;5074;53.720;10.014;2022-11-14T10:23:25;7.40;99.90
10070;DHT22;5074;53.720;10.014;2022-11-14T10:26:06;7.40;99.90
10070;DHT22;5074;53.720;10.014;2022-11-14T10:28:47;7.40;99.90
10070;DHT22;5074;53.720;10.014;2022-11-14T10:31:29;7.50;99.90
10070;DHT22;5074;53.720;10.014;2022-11-14T10:34:11;7.50;99.90
10070;DHT22;5074;53.720;10.014;2022-11-14T10:36:48;7.50;99.90
10070;DHT22;5074;53.720;10.014;2022-11-14T10:39:25;7.60;99.90
10070;DHT22;5074;53.720;10.014;2022-11-14T10:42:00;7.60;99.90
10070;DHT22;5074;53.720;10.014;2022-11-14T10:44:35;7.60;99.90
10070;DHT22;5074;53.720;10.014;2022-11-14T10:47:09;7.60;99.90
10070;DHT22;5074;53.720;10.014;2022-11-14T10:49:41;7.70;99.90
10070;DHT22;5074;53.720;10.014;2022-11-14T10:52:15;7.80;99.90
10070;DHT22;5074;53.720;10.014;2022-11-14T10:54:47;7.80;99.90
10070;DHT22;5074;53.720;10.014;2022-11-14T10:57:21;7.90;99.90
10070;DHT22;5074;53.720;10.014;2022-11-14T10:59:50;8.00;99.90
10070;DHT22;5074;53.720;10.014;2022-11-14T11:02:20;8.00;99.90
10070;DHT22;5074;53.720;10.014;2022-11-14T11:04:48;8.00;99.90
10070;DHT22;5074;53.720;10.014;2022-11-14T11:07:19;8.00;99.90
10070;DHT22;5074;53.720;10.014;2022-11-14T11:10:10;8.00;99.90
10070;DHT22;5074;53.720;10.014;2022-11-14T11:13:04;8.00;99.90
10070;DHT22;5074;53.720;10.014;2022-11-14T11:15:37;8.10;99.90
10070;DHT22;5074;53.720;10.014;2022-11-14T11:18:22;8.10;99.90
10070;DHT22;5074;53.720;10.014;2022-11-14T11:21:06;8.10;99.90
10070;DHT22;5074;53.720;10.014;2022-11-14T11:23:46;8.20;99.90
10070;DHT22;5074;53.720;10.014;2022-11-14T11:26:17;8.30;99.90
10070;DHT22;5074;53.720;10.014;2022-11-14T11:29:00;8.40;99.90
10070;DHT22;5074;53.720;10.014;2022-11-14T11:31:47;8.50;99.90
10070;DHT22;5074;53.720;10.014;2022-11-14T11:34:18;8.60;99.90
10070;DHT22;5074;53.720;10.014;2022-11-14T11:36:53;8.60;99.90
10070;DHT22;5074;53.720;10.014;2022-11-14T11:39:33;8.60;99.90
10070;DHT22;5074;53.720;10.014;2022-11-14T11:42:07;8.60;99.90
10070;DHT22;5074;53.720;10.014;2022-11-14T11:44:42;8.60;99.90
10070;DHT22;5074;53.720;10.014;2022-11-14T11:47:13;8.60;99.90
10070;DHT22;5074;53.720;10.014;2022-11-14T11:49:45;8.60;99.90
10070;DHT22;5074;53.720;10.014;2022-11-14T11:52:22;8.60;99.90
10070;DHT22;5074;53.720;10.014;2022-11-14T11:55:00;8.60;99.90
10070;DHT22;5074;53.720;10.014;2022-11-14T11:57:41;8.50;99.90
10070;DHT22;5074;53.720;10.014;2022-11-14T12:00:13;8.50;99.90
10070;DHT22;5074;53.720;10.014;2022-11-14T12:02:44;8.60;99.90
10070;DHT22;5074;53.720;10.014;2022-11-14T12:05:16;8.50;99.90
10070;DHT22;5074;53.720;10.014;2022-11-14T12:07:54;8.50;99.90
10070;DHT22;5074;53.720;10.014;2022-11-14T12:10:29;8.40;99.90
10070;DHT22;5074;53.720;10.014;2022-11-14T12:16:10;8.50;99.90
10070;DHT22;5074;53.720;10.014;2022-11-14T12:19:09;8.40;99.90
10070;DHT22;5074;53.720;10.014;2022-11-14T12:21:57;8.40;99.90
10070;DHT22;5074;53.720;10.014;2022-11-14T12:28:07;8.40;99.90
10070;DHT22;5074;53.720;10.014;2022-11-14T12:30:45;8.50;99.90
10070;DHT22;5074;53.720;10.014;2022-11-14T12:33:19;8.60;99.90
10070;DHT22;5074;53.720;10.014;2022-11-14T12:35:55;8.60;99.90
10070;DHT22;5074;53.720;10.014;2022-11-14T12:38:25;8.60;99.90
10070;DHT22;5074;53.720;10.014;2022-11-14T12:40:59;8.60;99.90
10070;DHT22;5074;53.720;10.014;2022-11-14T12:43:31;8.70;99.90
10070;DHT22;5074;53.720;10.014;2022-11-14T12:46:03;8.70;99.90
10070;DHT22;5074;53.720;10.014;2022-11-14T12:48:34;8.80;99.90
10070;DHT22;5074;53.720;10.014;2022-11-14T12:51:04;8.80;99.90
10070;DHT22;5074;53.720;10.014;2022-11-14T12:53:55;8.80;99.90
10070;DHT22;5074;53.720;10.014;2022-11-14T12:59:38;8.80;99.90
10070;DHT22;5074;53.720;10.014;2022-11-14T13:05:42;8.90;99.90
10070;DHT22;5074;53.720;10.014;2022-11-14T13:08:22;8.80;99.90
10070;DHT22;5074;53.720;10.014;2022-11-14T13:14:25;8.90;99.90
10070;DHT22;5074;53.720;10.014;2022-11-14T13:17:23;8.90;99.90
10070;DHT22;5074;53.720;10.014;2022-11-14T13:20:26;8.90;99.90
10070;DHT22;5074;53.720;10.014;2022-11-14T13:29:07;8.90;99.90
10070;DHT22;5074;53.720;10.014;2022-11-14T13:44:45;9.00;99.90
10070;DHT22;5074;53.720;10.014;2022-11-14T13:47:27;9.00;99.90
10070;DHT22;5074;53.720;10.014;2022-11-14T13:50:10;8.90;99.90
10070;DHT22;5074;53.720;10.014;2022-11-14T13:52:42;8.90;99.90
10070;DHT22;5074;53.720;10.014;2022-11-14T13:55:17;8.90;99.90
10070;DHT22;5074;53.720;10.014;2022-11-14T13:57:51;9.00;99.90
10070;DHT22;5074;53.720;10.014;2022-11-14T14:00:37;9.00;99.90
10070;DHT22;5074;53.720;10.014;2022-11-14T14:03:23;9.00;99.90
10070;DHT22;5074;53.720;10.014;2022-11-14T14:06:09;9.00;99.90
10070;DHT22;5074;53.720;10.014;2022-11-14T14:08:49;9.00;99.90
10070;DHT22;5074;53.720;10.014;2022-11-14T14:11:34;9.00;99.90
10070;DHT22;5074;53.720;10.014;2022-11-14T14:14:17;9.00;99.90
10070;DHT22;5074;53.720;10.014;2022-11-14T14:16:59;9.00;99.90
10070;DHT22;5074;53.720;10.014;2022-11-14T14:19:36;8.90;99.90
10070;DHT22;5074;53.720;10.014;2022-11-14T14:22:16;8.90;99.90
10070;DHT22;5074;53.720;10.014;2022-11-14T14:24:52;8.80;99.90
10070;DHT22;5074;53.720;10.014;2022-11-14T14:27:27;8.90;99.90
10070;DHT22;5074;53.720;10.014;2022-11-14T14:30:06;8.80;99.90
10070;DHT22;5074;53.720;10.014;2022-11-14T14:32:36;8.80;99.90
10070;DHT22;5074;53.720;10.014;2022-11-14T14:37:53;8.70;99.90
10070;DHT22;5074;53.720;10.014;2022-11-14T14:40:23;8.70;99.90
10070;DHT22;5074;53.720;10.014;2022-11-14T14:42:53;8.60;99.90
10070;DHT22;5074;53.720;10.014;2022-11-14T14:45:24;8.60;99.90
10070;DHT22;5074;53.720;10.014;2022-11-14T14:47:58;8.50;99.90
10070;DHT22;5074;53.720;10.014;2022-11-14T14:50:30;8.50;99.90
10070;DHT22;5074;53.720;10.014;2022-11-14T14:53:02;8.50;99.90
10070;DHT22;5074;53.720;10.014;2022-11-14T14:55:31;8.40;99.90
10070;DHT22;5074;53.720;10.014;2022-11-14T14:58:13;8.40;99.90
10070;DHT22;5074;53.720;10.014;2022-11-14T15:00:50;8.30;99.90
10070;DHT22;5074;53.720;10.014;2022-11-14T15:03:20;8.20;99.90
10070;DHT22;5074;53.720;10.014;2022-11-14T15:05:56;8.20;99.90
10070;DHT22;5074;53.720;10.014;2022-11-14T15:08:24;8.10;99.90
10070;DHT22;5074;53.720;10.014;2022-11-14T15:10:55;8.10;99.90
10070;DHT22;5074;53.720;10.014;2022-11-14T15:13:25;8.10;99.90
10070;DHT22;5074;53.720;10.014;2022-11-14T15:15:57;8.00;99.90
10070;DHT22;5074;53.720;10.014;2022-11-14T15:18:27;8.00;99.90
10070;DHT22;5074;53.720;10.014;2022-11-14T15:21:13;7.90;99.90
10070;DHT22;5074;53.720;10.014;2022-11-14T15:23:56;7.80;99.90
10070;DHT22;5074;53.720;10.014;2022-11-14T15:26:27;7.70;99.90
10070;DHT22;5074;53.720;10.014;2022-11-14T15:29:03;7.70;99.90
10070;DHT22;5074;53.720;10.014;2022-11-14T15:31:34;7.70;99.90
10070;DHT22;5074;53.720;10.014;2022-11-14T15:34:04;7.60;99.90
10070;DHT22;5074;53.720;10.014;2022-11-14T15:36:33;7.60;99.90
10070;DHT22;5074;53.720;10.014;2022-11-14T15:39:02;7.60;99.90
10070;DHT22;5074;53.720;10.014;2022-11-14T15:41:32;7.60;99.90
10070;DHT22;5074;53.720;10.014;2022-11-14T15:44:00;7.60;99.90
10070;DHT22;5074;53.720;10.014;2022-11-14T15:46:33;7.50;99.90
10070;DHT22;5074;53.720;10.014;2022-11-14T15:49:14;7.50;99.90
10070;DHT22;5074;53.720;10.014;2022-11-14T15:51:46;7.40;99.90
10070;DHT22;5074;53.720;10.014;2022-11-14T15:54:21;7.40;99.90
10070;DHT22;5074;53.720;10.014;2022-11-14T15:56:53;7.40;99.90
10070;DHT22;5074;53.720;10.014;2022-11-14T15:59:23;7.30;99.90
10070;DHT22;5074;53.720;10.014;2022-11-14T16:01:55;7.30;99.90
10070;DHT22;5074;53.720;10.014;2022-11-14T16:04:27;7.30;99.90
10070;DHT22;5074;53.720;10.014;2022-11-14T16:06:58;7.30;99.90
10070;DHT22;5074;53.720;10.014;2022-11-14T16:09:26;7.20;99.90
10070;DHT22;5074;53.720;10.014;2022-11-14T16:11:55;7.20;99.90
10070;DHT22;5074;53.720;10.014;2022-11-14T16:14:23;7.20;99.90
10070;DHT22;5074;53.720;10.014;2022-11-14T16:16:51;7.20;99.90
10070;DHT22;5074;53.720;10.014;2022-11-14T16:19:20;7.20;99.90
10070;DHT22;5074;53.720;10.014;2022-11-14T16:21:48;7.20;99.90
10070;DHT22;5074;53.720;10.014;2022-11-14T16:24:17;7.10;99.90
10070;DHT22;5074;53.720;10.014;2022-11-14T16:26:46;7.10;99.90
10070;DHT22;5074;53.720;10.014;2022-11-14T16:29:14;7.10;99.90
10070;DHT22;5074;53.720;10.014;2022-11-14T16:31:43;7.10;99.90
10070;DHT22;5074;53.720;10.014;2022-11-14T16:34:13;7.10;99.90
10070;DHT22;5074;53.720;10.014;2022-11-14T16:36:45;7.10;99.90
10070;DHT22;5074;53.720;10.014;2022-11-14T16:39:14;7.10;99.90
10070;DHT22;5074;53.720;10.014;2022-11-14T16:41:42;7.10;99.90
10070;DHT22;5074;53.720;10.014;2022-11-14T16:44:15;7.00;99.90
10070;DHT22;5074;53.720;10.014;2022-11-14T16:46:44;7.00;99.90
10070;DHT22;5074;53.720;10.014;2022-11-14T16:49:13;7.00;99.90
10070;DHT22;5074;53.720;10.014;2022-11-14T16:51:42;7.00;99.90
10070;DHT22;5074;53.720;10.014;2022-11-14T16:54:16;6.90;99.90